Terminal Aerodrome Forecast
Issued by NWS

Home | Current Version | Previous Version | Text Only | Print | Product List | Glossary On
Versions: 1 2 3 4 5 6 7 8 9 10 11 12 13 14 15 16 17 18 19 20 21 22 23 24 25 26 27 28
000
FTUS42 KGSP 042340
TAFHKY
TAF
KHKY 042340Z 0500/0524 VRB02KT 4SM -RA BR SCT009 OVC025
      TEMPO 0500/0502 3SM -RA BR SCT004 BKN008 OVC020
     FM050200 00000KT 4SM -RA BR SCT003 OVC007
     FM050400 00000KT 2SM BR OVC003
     FM050900 00000KT 1 1/2SM BR OVC003
     FM051500 VRB02KT P6SM BKN250=

USA.gov is the U.S. government's official web portal to all federal, state and local government web resources and services.